Time,TemperatureF,DewpointF,PressureIn,WindDirection,WindDirectionDegrees,WindSpeedMPH,WindSpeedGustMPH,Humidity,HourlyPrecipIn,Conditions,Clouds,dailyrainin,SolarRadiationWatts/m^2,SoftwareType,DateUTC
2013-02-07 00:01:00,1.0,-3.0,-100.00,SW,215,0.0,0.0,81,0.00,,,0.00,0.000000,,2013-02-07 05:01:00,
2013-02-07 00:11:00,1.0,-3.0,-100.00,SW,215,0.0,0.0,81,0.00,,,0.00,0.000000,,2013-02-07 05:11:00,
2013-02-07 00:21:00,1.0,-3.0,-100.00,SW,215,0.0,0.0,81,0.00,,,0.00,0.000000,,2013-02-07 05:21:00,
2013-02-07 00:52:00,1.0,-4.0,-100.00,SSW,195,0.0,0.0,80,0.00,,,0.00,0.000000,,2013-02-07 05:52:00,
2013-02-07 01:02:00,1.0,-4.0,-100.00,SSW,195,0.0,0.0,80,0.00,,,0.00,0.000000,,2013-02-07 06:02:00,
2013-02-07 01:11:00,1.0,-4.0,-100.00,SSW,195,0.0,0.0,80,0.00,,,0.00,0.000000,,2013-02-07 06:11:00,
2013-02-07 01:22:00,1.0,-4.0,-100.00,SSW,195,0.0,0.0,80,0.00,,,0.00,0.000000,,2013-02-07 06:22:00,
2013-02-07 01:52:00,0.0,-5.0,-100.00,West,266,0.0,0.0,80,0.00,,,0.00,0.000000,,2013-02-07 06:52:00,
2013-02-07 02:01:00,0.0,-5.0,-100.00,West,266,0.0,0.0,80,0.00,,,0.00,0.000000,,2013-02-07 07:01:00,
2013-02-07 02:11:00,0.0,-5.0,-100.00,West,266,0.0,0.0,80,0.00,,,0.00,0.000000,,2013-02-07 07:11:00,
2013-02-07 02:21:00,0.0,-5.0,-100.00,West,266,0.0,0.0,80,0.00,,,0.00,0.000000,,2013-02-07 07:21:00,
2013-02-07 02:52:00,-1.0,-6.0,-100.00,WNW,282,0.0,2.0,79,0.00,,,0.00,0.000000,,2013-02-07 07:52:00,
2013-02-07 03:01:00,-1.0,-6.0,-100.00,WNW,282,0.0,2.0,79,0.00,,,0.00,0.000000,,2013-02-07 08:01:00,
2013-02-07 03:11:00,-1.0,-6.0,-100.00,WNW,282,0.0,2.0,79,0.00,,,0.00,0.000000,,2013-02-07 08:11:00,
2013-02-07 03:21:00,-1.0,-6.0,-100.00,WNW,282,0.0,2.0,79,0.00,,,0.00,0.000000,,2013-02-07 08:21:00,
2013-02-07 03:52:00,-1.0,-6.0,-100.00,WNW,286,0.0,0.0,79,0.00,,,0.00,0.000000,,2013-02-07 08:52:00,
2013-02-07 04:01:00,-1.0,-6.0,-100.00,WNW,286,0.0,0.0,79,0.00,,,0.00,0.000000,,2013-02-07 09:01:00,
2013-02-07 04:11:00,-1.0,-6.0,-100.00,WNW,286,0.0,0.0,79,0.00,,,0.00,0.000000,,2013-02-07 09:11:00,
2013-02-07 04:21:00,-1.0,-6.0,-100.00,WNW,286,0.0,0.0,79,0.00,,,0.00,0.000000,,2013-02-07 09:21:00,
2013-02-07 04:52:00,-1.0,-6.0,-100.00,SE,137,0.0,0.0,80,0.00,,,0.00,0.000000,,2013-02-07 09:52:00,
2013-02-07 05:01:00,-1.0,-6.0,-100.00,SE,137,0.0,0.0,80,0.00,,,0.00,0.000000,,2013-02-07 10:01:00,
2013-02-07 05:11:00,-1.0,-6.0,-100.00,SE,137,0.0,0.0,80,0.00,,,0.00,0.000000,,2013-02-07 10:11:00,
2013-02-07 05:22:00,-1.0,-6.0,-100.00,SE,137,0.0,0.0,80,0.00,,,0.00,0.000000,,2013-02-07 10:22:00,
2013-02-07 05:52:00,-1.0,-6.0,-100.00,WSW,249,0.0,1.0,80,0.00,,,0.00,0.000000,,2013-02-07 10:52:00,
2013-02-07 06:01:00,-1.0,-6.0,-100.00,WSW,249,0.0,1.0,80,0.00,,,0.00,0.000000,,2013-02-07 11:01:00,
2013-02-07 06:11:00,-1.0,-6.0,-100.00,WSW,249,0.0,1.0,80,0.00,,,0.00,0.000000,,2013-02-07 11:11:00,
2013-02-07 06:22:00,-1.0,-6.0,-100.00,WSW,249,0.0,1.0,80,0.00,,,0.00,0.000000,,2013-02-07 11:22:00,
2013-02-07 06:52:00,0.0,-5.0,-100.00,NNE,23,0.0,2.0,80,0.00,,,0.00,0.000000,,2013-02-07 11:52:00,
2013-02-07 07:02:00,0.0,-5.0,-100.00,NNE,23,0.0,2.0,80,0.00,,,0.00,0.000000,,2013-02-07 12:02:00,
2013-02-07 07:11:00,0.0,-5.0,-100.00,NNE,23,0.0,2.0,80,0.00,,,0.00,0.000000,,2013-02-07 12:11:00,
2013-02-07 07:21:00,0.0,-5.0,-100.00,NNE,23,0.0,2.0,80,0.00,,,0.00,0.000000,,2013-02-07 12:21:00,
2013-02-07 07:53:00,0.0,-5.0,-100.00,North,349,0.0,0.0,80,0.00,,,0.00,0.000000,,2013-02-07 12:53:00,
2013-02-07 08:02:00,0.0,-5.0,-100.00,North,349,0.0,0.0,80,0.00,,,0.00,0.000000,,2013-02-07 13:02:00,
2013-02-07 08:11:00,0.0,-5.0,-100.00,North,349,0.0,0.0,80,0.00,,,0.00,0.000000,,2013-02-07 13:11:00,
2013-02-07 08:21:00,0.0,-5.0,-100.00,North,349,0.0,0.0,80,0.00,,,0.00,0.000000,,2013-02-07 13:21:00,
2013-02-07 08:52:00,-3.0,-8.0,-100.00,WSW,249,0.0,0.0,78,0.00,,,0.00,0.000000,,2013-02-07 13:52:00,
2013-02-07 09:01:00,-3.0,-8.0,-100.00,WSW,249,0.0,0.0,78,0.00,,,0.00,0.000000,,2013-02-07 14:01:00,
2013-02-07 09:11:00,-3.0,-8.0,-100.00,WSW,249,0.0,0.0,78,0.00,,,0.00,0.000000,,2013-02-07 14:11:00,
2013-02-07 09:21:00,-3.0,-8.0,-100.00,WSW,249,0.0,0.0,78,0.00,,,0.00,0.000000,,2013-02-07 14:21:00,
2013-02-07 09:52:00,-9.0,-15.0,-100.00,NE,47,0.0,0.0,74,0.00,,,0.00,0.000000,,2013-02-07 14:52:00,
2013-02-07 10:01:00,-9.0,-15.0,-100.00,NE,47,0.0,0.0,74,0.00,,,0.00,0.000000,,2013-02-07 15:01:00,
2013-02-07 10:11:00,-9.0,-15.0,-100.00,NE,47,0.0,0.0,74,0.00,,,0.00,0.000000,,2013-02-07 15:11:00,
2013-02-07 10:21:00,-9.0,-15.0,-100.00,NE,47,0.0,0.0,74,0.00,,,0.00,0.000000,,2013-02-07 15:21:00,
2013-02-07 10:52:00,-13.0,-19.0,-100.00,East,81,0.0,0.0,72,0.00,,,0.00,0.000000,,2013-02-07 15:52:00,
2013-02-07 11:01:00,-13.0,-19.0,-100.00,East,81,0.0,0.0,72,0.00,,,0.00,0.000000,,2013-02-07 16:01:00,
2013-02-07 11:52:00,-15.0,-22.0,-100.00,ENE,62,0.0,0.0,68,-99.99,,,0.00,0.000000,,2013-02-07 16:52:00,
2013-02-07 12:01:00,-15.0,-22.0,-100.00,ENE,62,0.0,0.0,68,-99.99,,,0.00,0.000000,,2013-02-07 17:01:00,
2013-02-07 12:52:00,-16.0,-23.0,-100.00,ENE,78,0.0,0.0,70,0.00,,,0.00,0.000000,,2013-02-07 17:52:00,
2013-02-07 13:01:00,-16.0,-23.0,-100.00,ENE,78,0.0,0.0,70,0.00,,,0.00,0.000000,,2013-02-07 18:01:00,
2013-02-07 13:52:00,-18.0,-26.0,-100.00,SSW,192,0.0,0.0,67,-99.99,,,0.00,1.000000,,2013-02-07 18:52:00,
2013-02-07 14:01:00,-18.0,-26.0,-100.00,SSW,192,0.0,0.0,67,-99.99,,,0.00,1.000000,,2013-02-07 19:01:00,
2013-02-07 14:52:00,-15.0,-21.0,-100.00,ENE,73,0.0,0.0,72,-99.99,,,0.00,5.000000,,2013-02-07 19:52:00,
2013-02-07 15:01:00,-15.0,-21.0,-100.00,ENE,73,0.0,0.0,72,-99.99,,,0.00,5.000000,,2013-02-07 20:01:00,
2013-02-07 15:52:00,-14.0,-21.0,-100.00,SSE,164,0.0,0.0,68,-99.99,,,0.00,9.000000,,2013-02-07 20:52:00,
2013-02-07 16:01:00,-14.0,-21.0,-100.00,SSE,164,0.0,0.0,68,-99.99,,,0.00,9.000000,,2013-02-07 21:01:00,
2013-02-07 16:52:00,-3.0,-9.0,-100.00,SE,134,1.0,1.0,74,-99.99,,,0.00,25.000000,,2013-02-07 21:52:00,
2013-02-07 17:02:00,-3.0,-9.0,-100.00,SE,134,1.0,1.0,74,-99.99,,,0.00,25.000000,,2013-02-07 22:02:00,
2013-02-07 17:11:00,-3.0,-9.0,-100.00,SE,134,1.0,1.0,74,-99.99,,,0.00,25.000000,,2013-02-07 22:11:00,
2013-02-07 17:21:00,-3.0,-9.0,-100.00,SE,134,1.0,1.0,74,-99.99,,,0.00,25.000000,,2013-02-07 22:21:00,
2013-02-07 17:52:00,-1.0,-10.0,-100.00,SSW,204,0.0,2.0,66,0.00,,,0.00,35.000000,,2013-02-07 22:52:00,
2013-02-07 18:01:00,-1.0,-10.0,-100.00,SSW,204,0.0,2.0,66,0.00,,,0.00,35.000000,,2013-02-07 23:01:00,
2013-02-07 18:11:00,-1.0,-10.0,-100.00,SSW,204,0.0,2.0,66,0.00,,,0.00,35.000000,,2013-02-07 23:11:00,
2013-02-07 18:21:00,-1.0,-10.0,-100.00,SSW,204,0.0,2.0,66,0.00,,,0.00,35.000000,,2013-02-07 23:21:00,
2013-02-07 18:52:00,-3.0,-9.0,-100.00,WSW,257,0.0,1.0,73,0.00,,,0.00,18.000000,,2013-02-07 23:52:00,
2013-02-07 19:01:00,-3.0,-9.0,-100.00,WSW,257,0.0,1.0,73,0.00,,,0.00,18.000000,,2013-02-08 00:01:00,
2013-02-07 19:11:00,-3.0,-9.0,-100.00,WSW,257,0.0,1.0,73,0.00,,,0.00,18.000000,,2013-02-08 00:11:00,
2013-02-07 19:21:00,-3.0,-9.0,-100.00,WSW,257,0.0,1.0,73,0.00,,,0.00,18.000000,,2013-02-08 00:21:00,
2013-02-07 20:52:00,0.0,-5.0,-100.00,NW,319,0.0,0.0,77,0.00,,,0.00,7.000000,,2013-02-08 01:52:00,
2013-02-07 21:01:00,0.0,-5.0,-100.00,NW,319,0.0,0.0,77,0.00,,,0.00,7.000000,,2013-02-08 02:01:00,
2013-02-07 21:52:00,1.0,-3.0,-100.00,West,276,0.0,0.0,81,0.00,,,0.00,1.000000,,2013-02-08 02:52:00,
2013-02-07 22:01:00,1.0,-3.0,-100.00,West,276,0.0,0.0,81,0.00,,,0.00,1.000000,,2013-02-08 03:01:00,
2013-02-07 22:12:00,1.0,-3.0,-100.00,West,276,0.0,0.0,81,0.00,,,0.00,1.000000,,2013-02-08 03:12:00,
2013-02-07 22:22:00,1.0,-3.0,-100.00,West,276,0.0,0.0,81,0.00,,,0.00,1.000000,,2013-02-08 03:22:00,
2013-02-07 22:52:00,3.0,-1.0,-100.00,WNW,282,0.0,0.0,81,0.00,,,0.00,0.000000,,2013-02-08 03:52:00,
2013-02-07 23:01:00,3.0,-1.0,-100.00,WNW,282,0.0,0.0,81,0.00,,,0.00,0.000000,,2013-02-08 04:01:00,
2013-02-07 23:11:00,3.0,-1.0,-100.00,WNW,282,0.0,0.0,81,0.00,,,0.00,0.000000,,2013-02-08 04:11:00,
2013-02-07 23:21:00,3.0,-1.0,-100.00,WNW,282,0.0,0.0,81,0.00,,,0.00,0.000000,,2013-02-08 04:21:00,
2013-02-07 23:52:00,5.0,1.0,-100.00,NNW,347,1.0,3.0,83,0.00,,,0.00,0.000000,,2013-02-08 04:52:00,